Time;durP1;ratioP1;P1;durP2;ratioP2;P2;SDS_P1;SDS_P2;PMS_P1;PMS_P2;Temp;Humidity;BMP_temperature;BMP_pressure;BME280_temperature;BME280_humidity;BME280_pressure;Samples;Min_cycle;Max_cycle;Signal;HPM_P1;HPM_P2
2021/04/30 00:01:24;;;;;;;28.00;12.48;;;;;;;-145.50;100.00;65435.88;5064478;28;20637;-72
2021/04/30 00:04:11;;;;;;;28.73;13.13;;;;;;;-145.50;100.00;65435.88;5058355;28;20075;-72
2021/04/30 00:06:58;;;;;;;27.98;12.93;;;;;;;-145.50;100.00;65435.88;5047285;28;20092;-73
2021/04/30 00:09:44;;;;;;;32.35;13.82;;;;;;;-145.50;100.00;65435.88;5053091;28;20052;-72
2021/04/30 00:12:31;;;;;;;31.98;13.27;;;;;;;-145.50;100.00;65435.88;5054024;28;20084;-73
2021/04/30 00:15:17;;;;;;;28.95;14.02;;;;;;;-145.50;100.00;65435.88;5041761;28;20155;-72
2021/04/30 00:18:05;;;;;;;37.85;13.88;;;;;;;-145.50;100.00;65435.88;5063594;28;20099;-72
2021/04/30 00:20:54;;;;;;;26.13;12.73;;;;;;;-145.50;100.00;65435.88;5048804;28;20119;-71
2021/04/30 00:23:41;;;;;;;33.78;13.45;;;;;;;-145.50;100.00;65435.88;5061498;28;20441;-71
2021/04/30 00:26:28;;;;;;;27.80;12.98;;;;;;;-145.50;100.00;65435.88;5052664;28;20160;-71
2021/04/30 00:29:15;;;;;;;30.45;13.15;;;;;;;-145.50;100.00;65435.88;5062408;28;20139;-71
2021/04/30 00:32:01;;;;;;;33.78;13.85;;;;;;;-145.50;100.00;65435.88;5060257;28;20171;-70
2021/04/30 00:34:49;;;;;;;24.87;12.23;;;;;;;-145.50;100.00;65435.88;5057436;28;20045;-71
2021/04/30 00:37:38;;;;;;;28.85;13.52;;;;;;;-145.50;100.00;65435.88;5043095;28;20083;-70
2021/04/30 00:40:28;;;;;;;27.30;12.38;;;;;;;-145.50;100.00;65435.88;5060821;28;20126;-71
2021/04/30 00:43:15;;;;;;;30.75;12.75;;;;;;;-145.50;100.00;65435.88;5056412;28;20056;-70
2021/04/30 00:46:02;;;;;;;32.60;15.05;;;;;;;-145.50;100.00;65435.88;5063024;28;20855;-71
2021/04/30 00:48:49;;;;;;;36.70;15.05;;;;;;;-145.50;100.00;65435.88;5058457;28;20111;-71
2021/04/30 00:51:35;;;;;;;42.28;13.73;;;;;;;-145.50;100.00;65435.88;5047811;28;20083;-71
2021/04/30 00:54:22;;;;;;;26.42;12.82;;;;;;;-145.50;100.00;65435.88;5056260;28;20057;-71
2021/04/30 00:57:11;;;;;;;27.05;13.68;;;;;;;-145.50;100.00;65435.88;5065752;28;20144;-71
2021/04/30 00:59:58;;;;;;;;;;;;;;;-145.50;100.00;65435.88;5045462;28;20084;-71
2021/04/30 01:02:45;;;;;;;29.17;13.27;;;;;;;-145.50;100.00;65435.88;5065965;28;19964;-71
2021/04/30 01:05:32;;;;;;;24.65;12.05;;;;;;;-145.50;100.00;65435.88;5039814;28;20613;-70
2021/04/30 01:08:19;;;;;;;26.15;12.65;;;;;;;-145.50;100.00;65435.88;5059812;28;20056;-71
2021/04/30 01:11:06;;;;;;;29.40;13.32;;;;;;;-145.50;100.00;65435.88;5059115;28;20052;-71
2021/04/30 01:13:53;;;;;;;20.48;11.35;;;;;;;-145.50;100.00;65435.88;5064578;28;20052;-71
2021/04/30 01:16:39;;;;;;;35.03;13.95;;;;;;;-145.50;100.00;65435.88;5057489;28;20057;-70
2021/04/30 01:19:27;;;;;;;36.95;14.52;;;;;;;-145.50;100.00;65435.88;5061784;28;20048;-70
2021/04/30 01:22:36;;;;;;;32.27;13.57;;;;;;;-145.50;100.00;65435.88;5058669;28;20052;-70
2021/04/30 01:25:31;;;;;;;35.42;14.88;;;;;;;-145.50;100.00;65435.88;5053210;28;20599;-70
2021/04/30 01:28:18;;;;;;;24.15;13.02;;;;;;;-145.50;100.00;65435.88;5060568;28;20088;-71
2021/04/30 01:31:06;;;;;;;35.00;14.80;;;;;;;-145.50;100.00;65435.88;5063798;28;20098;-70
2021/04/30 01:33:55;;;;;;;30.70;13.77;;;;;;;-145.50;100.00;65435.88;5051758;28;20055;-70
2021/04/30 01:36:42;;;;;;;31.65;15.68;;;;;;;-145.50;100.00;65435.88;5055745;28;20122;-70
2021/04/30 01:39:31;;;;;;;32.10;13.32;;;;;;;-145.50;100.00;65435.88;5061676;28;20652;-70
2021/04/30 01:42:17;;;;;;;26.80;12.75;;;;;;;-145.50;100.00;65435.88;5064404;28;20056;-70
2021/04/30 01:45:04;;;;;;;32.70;13.98;;;;;;;-145.50;100.00;65435.88;5065683;28;20080;-70
2021/04/30 01:47:51;;;;;;;29.88;14.10;;;;;;;-145.50;100.00;65435.88;5043627;28;20063;-70
2021/04/30 01:50:38;;;;;;;36.95;14.40;;;;;;;-145.50;100.00;65435.88;5063364;28;20110;-70
2021/04/30 01:53:28;;;;;;;35.55;16.15;;;;;;;-145.50;100.00;65435.88;5064768;28;20048;-70
2021/04/30 01:56:16;;;;;;;34.95;14.05;;;;;;;-145.50;100.00;65435.88;5064113;28;20056;-71
2021/04/30 01:59:02;;;;;;;34.72;15.38;;;;;;;-145.50;100.00;65435.88;5046704;28;20080;-70
2021/04/30 02:01:49;;;;;;;36.40;16.27;;;;;;;-145.50;100.00;65435.88;5041615;28;20084;-70
2021/04/30 02:04:36;;;;;;;32.85;14.98;;;;;;;-145.50;100.00;65435.88;5055038;28;20084;-70
2021/04/30 02:07:22;;;;;;;37.75;16.15;;;;;;;-145.50;100.00;65435.88;5064921;28;20095;-71
2021/04/30 02:10:16;;;;;;;32.72;14.73;;;;;;;-145.50;100.00;65435.88;5057094;28;20095;-70
2021/04/30 02:13:04;;;;;;;36.88;16.33;;;;;;;-145.50;100.00;65435.88;5063659;28;20118;-70
2021/04/30 02:15:53;;;;;;;40.97;16.13;;;;;;;-145.50;100.00;65435.88;5051784;28;20149;-70
2021/04/30 02:18:39;;;;;;;36.75;16.15;;;;;;;-145.50;100.00;65435.88;5062761;28;20118;-70
2021/04/30 02:21:26;;;;;;;30.35;14.90;;;;;;;-145.50;100.00;65435.88;5053444;28;20084;-70
2021/04/30 02:24:13;;;;;;;40.45;14.93;;;;;;;-145.50;100.00;65435.88;5064802;28;20480;-70
2021/04/30 02:26:59;;;;;;;39.65;16.13;;;;;;;-145.50;100.00;65435.88;5057806;28;20476;-70
2021/04/30 02:29:46;;;;;;;34.65;14.27;;;;;;;-145.50;100.00;65435.88;5055453;28;20083;-70
2021/04/30 02:32:33;;;;;;;29.75;15.95;;;;;;;-145.50;100.00;65435.88;5040174;28;20537;-70
2021/04/30 02:35:20;;;;;;;33.75;15.90;;;;;;;-145.50;100.00;65435.88;5064541;28;20076;-70
2021/04/30 02:38:08;;;;;;;32.90;16.42;;;;;;;-145.50;100.00;65435.88;5058244;28;20151;-70
2021/04/30 02:40:55;;;;;;;37.22;16.15;;;;;;;-145.50;100.00;65435.88;5063252;28;20056;-71
2021/04/30 02:43:42;;;;;;;45.35;16.38;;;;;;;-145.50;100.00;65435.88;5051882;28;20131;-71
2021/04/30 02:46:28;;;;;;;31.52;14.93;;;;;;;-145.50;100.00;65435.88;5062313;28;20121;-71
2021/04/30 02:49:17;;;;;;;29.23;14.35;;;;;;;-145.50;100.00;65435.88;5056603;28;20082;-71
2021/04/30 02:52:04;;;;;;;33.13;14.60;;;;;;;-145.50;100.00;65435.88;5063310;28;20052;-71
2021/04/30 02:54:51;;;;;;;31.38;14.20;;;;;;;-145.50;100.00;65435.88;5057102;28;20684;-70
2021/04/30 02:57:38;;;;;;;31.17;15.82;;;;;;;-145.50;100.00;65435.88;5059066;28;20210;-70
2021/04/30 03:00:27;;;;;;;29.35;15.15;;;;;;;-145.50;100.00;65435.88;5039159;28;20875;-70
2021/04/30 03:03:14;;;;;;;;;;;;;;;-145.50;100.00;65435.88;5046938;28;20080;-71
2021/04/30 03:06:00;;;;;;;41.78;14.13;;;;;;;-145.50;100.00;65435.88;5056282;28;19928;-70
2021/04/30 03:08:52;;;;;;;35.03;15.05;;;;;;;-145.50;100.00;65435.88;5062122;28;20061;-71
2021/04/30 03:11:39;;;;;;;28.55;15.20;;;;;;;-145.50;100.00;65435.88;5047920;28;20118;-70
2021/04/30 03:14:26;;;;;;;26.33;12.77;;;;;;;-145.50;100.00;65435.88;5061829;28;20045;-71
2021/04/30 03:17:13;;;;;;;41.05;15.63;;;;;;;-145.50;100.00;65435.88;5058256;28;20056;-71
2021/04/30 03:20:37;;;;;;;38.05;14.15;;;;;;;-145.50;100.00;65435.88;5062929;28;20048;-70
2021/04/30 03:23:24;;;;;;;27.80;13.85;;;;;;;-145.50;100.00;65435.88;5053482;28;20076;-70
2021/04/30 03:26:11;;;;;;;29.27;13.85;;;;;;;-145.50;100.00;65435.88;5051835;28;20087;-71
2021/04/30 03:28:58;;;;;;;22.45;13.30;;;;;;;-145.50;100.00;65435.88;5057353;28;20416;-70
2021/04/30 03:31:45;;;;;;;26.80;13.88;;;;;;;-145.50;100.00;65435.88;5063463;28;20095;-71
2021/04/30 03:34:32;;;;;;;28.90;14.15;;;;;;;-145.50;100.00;65435.88;5059719;28;20060;-70
2021/04/30 03:37:18;;;;;;;29.27;15.57;;;;;;;-145.50;100.00;65435.88;5062673;28;20056;-70
2021/04/30 03:40:06;;;;;;;30.80;14.07;;;;;;;-145.50;100.00;65435.88;5051715;28;20084;-70
2021/04/30 03:42:52;;;;;;;32.03;14.88;;;;;;;-145.50;100.00;65435.88;5062187;28;20052;-70
2021/04/30 03:45:39;;;;;;;33.50;15.02;;;;;;;-145.50;100.00;65435.88;5039037;28;21474;-71
2021/04/30 03:48:27;;;;;;;30.33;14.73;;;;;;;-145.50;100.00;65435.88;5063918;28;20583;-71
2021/04/30 03:51:14;;;;;;;;;;;;;;;-145.50;100.00;65435.88;5062155;28;20087;-71
2021/04/30 03:53:40;;;;;;;32.83;15.40;;;;;;;-145.50;100.00;65435.88;5055035;28;20729;-70
2021/04/30 03:56:26;;;;;;;29.25;14.60;;;;;;;-145.50;100.00;65435.88;5041866;28;20045;-70
2021/04/30 03:59:12;;;;;;;35.20;15.00;;;;;;;-145.50;100.00;65435.88;5063652;28;20053;-70
2021/04/30 04:01:51;;;;;;;31.40;14.63;;;;;;;-145.50;100.00;65435.88;5060142;28;20080;-70
2021/04/30 04:04:18;;;;;;;31.58;15.25;;;;;;;-145.50;100.00;65435.88;5059712;28;20488;-70
2021/04/30 04:07:04;;;;;;;30.73;14.68;;;;;;;-145.50;100.00;65435.88;5058344;28;20143;-70
2021/04/30 04:09:50;;;;;;;31.70;14.18;;;;;;;-145.50;100.00;65435.88;5034723;28;20076;-70
2021/04/30 04:12:38;;;;;;;31.88;14.98;;;;;;;-145.50;100.00;65435.88;5062020;28;20057;-70
2021/04/30 04:15:25;;;;;;;34.15;14.40;;;;;;;-145.50;100.00;65435.88;5056349;28;20102;-70
2021/04/30 04:18:12;;;;;;;33.05;15.32;;;;;;;-145.50;100.00;65435.88;5058165;28;20056;-70
2021/04/30 04:21:00;;;;;;;27.73;14.38;;;;;;;-145.50;100.00;65435.88;5053025;28;20488;-70
2021/04/30 04:23:46;;;;;;;35.97;15.15;;;;;;;-145.50;100.00;65435.88;5055688;28;20135;-70
2021/04/30 04:26:33;;;;;;;32.25;15.27;;;;;;;-145.50;100.00;65435.88;5042250;28;20191;-70
2021/04/30 04:29:19;;;;;;;37.10;15.25;;;;;;;-145.50;100.00;65435.88;5060038;28;20067;-70
2021/04/30 04:32:06;;;;;;;31.85;16.83;;;;;;;-145.50;100.00;65435.88;5056979;28;20056;-70
2021/04/30 04:34:35;;;;;;;47.95;17.45;;;;;;;-145.50;100.00;65435.88;5040144;28;20107;-70
2021/04/30 04:37:01;;;;;;;35.17;15.48;;;;;;;8.46;79.93;101173.81;5052359;28;20880;-70
2021/04/30 04:39:44;;;;;;;30.38;16.00;;;;;;;-145.50;100.00;65435.88;5063055;28;20056;-70
2021/04/30 04:42:30;;;;;;;27.67;15.15;;;;;;;-145.50;100.00;65435.88;5053461;28;20052;-70
2021/04/30 04:45:17;;;;;;;29.42;15.00;;;;;;;-145.50;100.00;65435.88;5063684;28;20223;-70
2021/04/30 04:48:01;;;;;;;35.38;14.70;;;;;;;-145.50;100.00;65435.88;5062909;28;20056;-70
2021/04/30 04:50:48;;;;;;;36.10;17.63;;;;;;;-145.50;100.00;65435.88;5060000;28;20522;-70
2021/04/30 04:53:44;;;;;;;38.17;16.45;;;;;;;-145.50;100.00;65435.88;5065442;28;20480;-70
2021/04/30 04:56:26;;;;;;;38.70;16.63;;;;;;;-145.50;100.00;65435.88;5064175;28;20044;-70
2021/04/30 04:59:14;;;;;;;36.45;16.83;;;;;;;-145.50;100.00;65435.88;5065454;28;20060;-70
2021/04/30 05:02:00;;;;;;;35.47;17.75;;;;;;;-145.50;100.00;65435.88;5059162;28;20080;-70
2021/04/30 05:04:48;;;;;;;36.10;18.27;;;;;;;-145.50;100.00;65435.88;5045231;28;20396;-71
2021/04/30 05:07:24;;;;;;;38.97;18.20;;;;;;;-145.50;100.00;65435.88;5059756;28;20331;-71
2021/04/30 05:10:11;;;;;;;41.42;18.02;;;;;;;-145.50;100.00;65435.88;5047789;28;20117;-71
2021/04/30 05:12:57;;;;;;;37.85;18.52;;;;;;;-145.50;100.00;65435.88;5048773;28;20072;-70
2021/04/30 05:15:44;;;;;;;34.78;16.67;;;;;;;-145.50;100.00;65435.88;5058659;28;20496;-71
2021/04/30 05:18:25;;;;;;;41.90;17.30;;;;;;;-145.50;100.00;65435.88;5029077;28;20474;-70
2021/04/30 05:20:55;;;;;;;42.13;17.67;;;;;;;-145.50;100.00;65435.88;5045980;28;20091;-71
2021/04/30 05:23:24;;;;;;;37.97;17.67;;;;;;;-145.50;100.00;65435.88;5040494;28;20129;-71
2021/04/30 05:26:13;;;;;;;31.00;17.27;;;;;;;-145.50;100.00;65435.88;5063813;28;20488;-71
2021/04/30 05:28:40;;;;;;;;;;;;;;;-145.50;100.00;65435.88;5059335;28;20114;-71
2021/04/30 05:31:06;;;;;;;36.92;17.10;;;;;;;-145.50;100.00;65435.88;5058342;28;20383;-71
2021/04/30 05:33:51;;;;;;;34.90;16.25;;;;;;;-145.50;100.00;65435.88;5045435;28;20049;-71
2021/04/30 05:36:30;;;;;;;38.20;17.15;;;;;;;-145.50;100.00;65435.88;5056201;28;20077;-71
2021/04/30 05:39:17;;;;;;;39.78;16.65;;;;;;;-145.50;100.00;65435.88;5057041;28;20438;-71
2021/04/30 05:42:04;;;;;;;37.55;18.00;;;;;;;-145.50;100.00;65435.88;5059349;28;20064;-71
2021/04/30 05:44:53;;;;;;;35.17;18.03;;;;;;;-145.50;100.00;65435.88;5059763;28;20166;-71
2021/04/30 05:47:43;;;;;;;34.25;17.92;;;;;;;-145.50;100.00;65435.88;5045162;28;20059;-71
2021/04/30 05:50:30;;;;;;;41.72;17.50;;;;;;;-145.50;100.00;65435.88;5065425;28;20096;-71
2021/04/30 05:53:16;;;;;;;36.92;16.27;;;;;;;-145.50;100.00;65435.88;5046259;28;20427;-71
2021/04/30 05:56:03;;;;;;;37.20;16.38;;;;;;;-145.50;100.00;65435.88;5058861;28;20095;-71
2021/04/30 05:58:50;;;;;;;39.20;15.50;;;;;;;-145.50;100.00;65435.88;5055272;28;20484;-70
2021/04/30 06:01:36;;;;;;;40.33;15.60;;;;;;;-145.50;100.00;65435.88;5061789;28;20068;-71
2021/04/30 06:04:26;;;;;;;35.63;15.27;;;;;;;-145.50;100.00;65435.88;5047721;28;20149;-70
2021/04/30 06:07:12;;;;;;;37.47;14.43;;;;;;;-145.50;100.00;65435.88;5057406;28;20494;-70
2021/04/30 06:09:59;;;;;;;49.25;15.95;;;;;;;-145.50;100.00;65435.88;5052050;28;20087;-70
2021/04/30 06:12:46;;;;;;;38.00;14.38;;;;;;;-145.50;100.00;65435.88;5049950;28;20049;-71
2021/04/30 06:15:32;;;;;;;42.53;16.08;;;;;;;-145.50;100.00;65435.88;5054908;28;20549;-71
2021/04/30 06:18:19;;;;;;;40.15;15.48;;;;;;;-145.50;100.00;65435.88;5065864;28;20132;-71
2021/04/30 06:21:06;;;;;;;39.08;15.85;;;;;;;-145.50;100.00;65435.88;5057948;28;20361;-71
2021/04/30 06:23:53;;;;;;;40.67;16.17;;;;;;;-145.50;100.00;65435.88;5054844;28;20080;-71
2021/04/30 06:26:40;;;;;;;46.33;17.17;;;;;;;-145.50;100.00;65435.88;5046904;28;20454;-71
2021/04/30 06:29:27;;;;;;;43.28;16.35;;;;;;;-145.50;100.00;65435.88;5058319;28;20044;-70
2021/04/30 06:32:13;;;;;;;37.00;16.60;;;;;;;-145.50;100.00;65435.88;5041924;28;20048;-73
2021/04/30 06:35:08;;;;;;;35.58;18.00;;;;;;;-145.50;100.00;65435.88;5064435;28;20059;-71
2021/04/30 06:37:55;;;;;;;38.83;17.85;;;;;;;-145.50;100.00;65435.88;5040007;28;20125;-71
2021/04/30 06:40:42;;;;;;;36.42;17.83;;;;;;;-145.50;100.00;65435.88;5059990;28;20492;-71
2021/04/30 06:43:29;;;;;;;31.52;17.00;;;;;;;-145.50;100.00;65435.88;5051283;28;20315;-73
2021/04/30 06:46:16;;;;;;;44.45;17.67;;;;;;;-145.50;100.00;65435.88;5063671;28;20052;-71
2021/04/30 06:49:13;;;;;;;37.35;17.42;;;;;;;-145.50;100.00;65435.88;5040709;28;20460;-71
2021/04/30 06:52:00;;;;;;;36.75;17.13;;;;;;;-145.50;100.00;65435.88;5061505;28;20057;-71
2021/04/30 06:54:47;;;;;;;36.95;19.20;;;;;;;-145.50;100.00;65435.88;5052913;28;20130;-72
2021/04/30 06:57:54;;;;;;;43.28;18.23;;;;;;;-145.50;100.00;65435.88;5059489;28;20048;-71
2021/04/30 07:00:41;;;;;;;44.50;18.60;;;;;;;-145.50;100.00;65435.88;5056670;28;20080;-71
2021/04/30 07:03:28;;;;;;;42.72;19.33;;;;;;;-145.50;100.00;65435.88;5062220;28;20112;-71
2021/04/30 07:06:21;;;;;;;43.53;20.00;;;;;;;-145.50;100.00;65435.88;5047439;28;20080;-72
2021/04/30 07:09:07;;;;;;;40.83;19.77;;;;;;;-145.50;100.00;65435.88;5060529;28;20587;-71
2021/04/30 07:11:54;;;;;;;34.80;20.10;;;;;;;-145.50;100.00;65435.88;5057872;28;20056;-72
2021/04/30 07:14:41;;;;;;;42.63;20.27;;;;;;;-145.50;100.00;65435.88;5060063;28;20458;-72
2021/04/30 07:17:28;;;;;;;35.03;19.45;;;;;;;-145.50;100.00;65435.88;5057955;28;20140;-72
2021/04/30 07:20:15;;;;;;;37.42;20.60;;;;;;;-145.50;100.00;65435.88;5058303;28;20239;-72
2021/04/30 07:23:02;;;;;;;37.13;20.15;;;;;;;-145.50;100.00;65435.88;5053811;28;20095;-72
2021/04/30 07:25:50;;;;;;;36.58;20.67;;;;;;;-145.50;100.00;65435.88;5062047;28;20155;-71
2021/04/30 07:28:36;;;;;;;40.47;20.10;;;;;;;-145.50;100.00;65435.88;5055186;28;20063;-72
2021/04/30 07:31:23;;;;;;;41.28;20.70;;;;;;;-145.50;100.00;65435.88;5063713;28;20053;-72
2021/04/30 07:34:10;;;;;;;44.83;21.00;;;;;;;-145.50;100.00;65435.88;5047539;28;20105;-72
2021/04/30 07:36:57;;;;;;;43.53;21.85;;;;;;;-145.50;100.00;65435.88;5064040;28;20040;-71
2021/04/30 07:39:44;;;;;;;40.50;21.48;;;;;;;-145.50;100.00;65435.88;5054607;28;20083;-72
2021/04/30 07:42:31;;;;;;;41.45;22.05;;;;;;;-145.50;100.00;65435.88;5035354;28;20156;-72
2021/04/30 07:45:17;;;;;;;35.90;21.67;;;;;;;-145.50;100.00;65435.88;5041056;28;20082;-72
2021/04/30 07:48:04;;;;;;;45.20;22.20;;;;;;;-145.50;100.00;65435.88;5057913;28;20103;-72
2021/04/30 07:50:51;;;;;;;36.72;21.25;;;;;;;-145.50;100.00;65435.88;5050651;28;20603;-72
2021/04/30 07:53:40;;;;;;;37.83;21.73;;;;;;;-145.50;100.00;65435.88;5042634;28;20571;-71
2021/04/30 07:56:26;;;;;;;41.40;23.50;;;;;;;-145.50;100.00;65435.88;5045532;28;20052;-71
2021/04/30 07:59:13;;;;;;;41.65;21.63;;;;;;;-145.50;100.00;65435.88;5062636;28;20091;-71
2021/04/30 08:02:00;;;;;;;39.63;21.00;;;;;;;-145.50;100.00;65435.88;5055992;28;20052;-71
2021/04/30 08:04:47;;;;;;;39.72;21.90;;;;;;;-145.50;100.00;65435.88;5060457;28;20672;-70
2021/04/30 08:07:34;;;;;;;34.67;20.83;;;;;;;-145.50;100.00;65435.88;5061049;28;20091;-71
2021/04/30 08:10:21;;;;;;;40.83;21.10;;;;;;;-145.50;100.00;65435.88;5052091;28;20153;-71
2021/04/30 08:13:08;;;;;;;34.95;20.27;;;;;;;-145.50;100.00;65435.88;5063263;28;20102;-71
2021/04/30 08:15:54;;;;;;;38.92;21.02;;;;;;;-145.50;100.00;65435.88;5050037;28;20049;-71
2021/04/30 08:18:29;;;;;;;41.25;20.85;;;;;;;-145.50;100.00;65435.88;5064269;28;20052;-71
2021/04/30 08:20:55;;;;;;;36.65;21.17;;;;;;;-145.50;100.00;65435.88;5057671;28;20116;-71
2021/04/30 08:23:21;;;;;;;38.28;23.08;;;;;;;-145.50;100.00;65435.88;5063199;28;20086;-72
2021/04/30 08:25:50;;;;;;;37.25;24.40;;;;;;;-145.50;100.00;65435.88;5062135;28;20060;-71
2021/04/30 08:28:16;;;;;;;;;;;;;;;-145.50;100.00;65435.88;5062832;28;20061;-71
2021/04/30 08:30:42;;;;;;;44.65;22.45;;;;;;;-145.50;100.00;65435.88;5039648;28;20265;-71
2021/04/30 08:33:08;;;;;;;37.13;22.85;;;;;;;-145.50;100.00;65435.88;5065495;28;20064;-71
2021/04/30 08:35:34;;;;;;;40.38;22.95;;;;;;;-145.50;100.00;65435.88;5066475;28;20052;-71
2021/04/30 08:38:21;;;;;;;33.10;21.75;;;;;;;-145.50;100.00;65435.88;5058781;28;20417;-71
2021/04/30 08:41:08;;;;;;;38.63;23.45;;;;;;;-145.50;100.00;65435.88;5066248;28;20059;-72
2021/04/30 08:43:56;;;;;;;35.63;23.42;;;;;;;-145.50;100.00;65435.88;5053528;28;20076;-71
2021/04/30 08:46:43;;;;;;;39.50;23.83;;;;;;;-145.50;100.00;65435.88;5046913;28;20045;-72
2021/04/30 08:49:30;;;;;;;38.97;24.10;;;;;;;-145.50;100.00;65435.88;5059348;28;20136;-72
2021/04/30 08:52:17;;;;;;;38.67;24.48;;;;;;;-145.50;100.00;65435.88;5047363;28;20130;-72
2021/04/30 08:55:09;;;;;;;40.13;22.55;;;;;;;-145.50;100.00;65435.88;5052220;28;20080;-72
2021/04/30 08:57:55;;;;;;;33.67;23.80;;;;;;;-145.50;100.00;65435.88;5052763;28;20060;-72
2021/04/30 09:00:42;;;;;;;41.03;24.67;;;;;;;-145.50;100.00;65435.88;5058698;28;20115;-72
2021/04/30 09:03:35;;;;;;;38.80;24.95;;;;;;;-145.50;100.00;65435.88;5064891;28;20052;-72
2021/04/30 09:06:36;;;;;;;41.25;25.17;;;;;;;-145.50;100.00;65435.88;5060320;28;20055;-72
2021/04/30 09:09:30;;;;;;;37.47;23.95;;;;;;;-145.50;100.00;65435.88;5047517;28;20137;-72
2021/04/30 09:12:16;;;;;;;44.47;23.75;;;;;;;-145.50;100.00;65435.88;5057762;28;20053;-73
2021/04/30 09:15:05;;;;;;;38.47;24.67;;;;;;;-145.50;100.00;65435.88;5062833;28;20624;-73
2021/04/30 09:17:51;;;;;;;37.08;23.38;;;;;;;-145.50;100.00;65435.88;5058600;28;20049;-72
2021/04/30 09:20:38;;;;;;;38.22;23.63;;;;;;;-145.50;100.00;65435.88;5051292;28;20115;-72
2021/04/30 09:23:29;;;;;;;42.53;24.05;;;;;;;-145.50;100.00;65435.88;5055413;28;20052;-73
2021/04/30 09:26:23;;;;;;;37.80;23.60;;;;;;;-145.50;100.00;65435.88;5059341;28;20094;-73
2021/04/30 09:29:29;;;;;;;36.58;23.90;;;;;;;-145.50;100.00;65435.88;5056452;28;20944;-73
2021/04/30 09:32:16;;;;;;;37.42;23.80;;;;;;;-145.50;100.00;65435.88;5055471;28;20084;-73
2021/04/30 09:35:03;;;;;;;37.97;23.88;;;;;;;-145.50;100.00;65435.88;5055509;28;20057;-73
2021/04/30 09:37:49;;;;;;;39.85;24.23;;;;;;;-145.50;100.00;65435.88;5054167;28;20044;-72
2021/04/30 09:40:25;;;;;;;37.83;22.92;;;;;;;-145.50;100.00;65435.88;5054899;28;20141;-73
2021/04/30 09:43:01;;;;;;;38.88;25.23;;;;;;;-145.50;100.00;65435.88;5063508;28;20204;-73
2021/04/30 09:45:32;;;;;;;44.05;24.95;;;;;;;-145.50;100.00;65435.88;5053065;28;20105;-72
2021/04/30 09:48:05;;;;;;;42.58;26.35;;;;;;;-145.50;100.00;65435.88;5060387;28;20052;-72
2021/04/30 09:50:52;;;;;;;37.63;24.80;;;;;;;-145.50;100.00;65435.88;5057834;28;20144;-73
2021/04/30 09:53:27;;;;;;;37.90;24.38;;;;;;;-145.50;100.00;65435.88;5040904;28;20088;-74
2021/04/30 09:55:55;;;;;;;39.50;25.38;;;;;;;10.19;72.16;101317.41;5063294;28;20052;-73
2021/04/30 09:58:26;;;;;;;47.90;24.80;;;;;;;-145.50;100.00;65435.88;5056057;28;20161;-73
2021/04/30 10:00:57;;;;;;;38.30;26.30;;;;;;;6.04;100.00;65435.88;5042762;28;20571;-71
2021/04/30 10:03:35;;;;;;;45.95;27.13;;;;;;;-145.50;100.00;65435.88;5055696;28;20056;-72
2021/04/30 10:06:18;;;;;;;;;;;;;;;-145.50;100.00;65435.88;5059970;28;20074;-73
2021/04/30 10:09:14;;;;;;;40.53;26.48;;;;;;;-145.50;100.00;65435.88;5052772;28;20858;-73
2021/04/30 10:11:40;;;;;;;43.10;25.90;;;;;;;10.54;100.00;65435.88;5061744;28;20412;-72
2021/04/30 10:14:06;;;;;;;48.13;28.27;;;;;;;10.50;72.13;101331.34;5056537;28;20052;-72
2021/04/30 10:16:33;;;;;;;54.20;29.10;;;;;;;10.43;73.06;101341.56;5040794;28;20090;-71
2021/04/30 10:18:59;;;;;;;56.17;29.50;;;;;;;10.36;74.45;101332.56;5055875;28;20143;-74
2021/04/30 10:21:29;;;;;;;55.50;29.42;;;;;;;10.34;75.06;101336.28;5043393;28;20111;-73
2021/04/30 10:23:55;;;;;;;52.83;31.88;;;;;;;10.32;76.26;101335.59;5059078;28;20094;-74
2021/04/30 10:26:21;;;;;;;49.05;32.75;;;;;;;10.28;75.50;101330.56;5038791;28;20109;-72
2021/04/30 10:28:52;;;;;;;50.13;30.23;;;;;;;10.30;75.61;101333.09;5043035;28;20102;-73
2021/04/30 10:31:30;;;;;;;42.08;28.45;;;;;;;10.35;75.70;101332.69;5062071;28;20802;-72
2021/04/30 10:34:00;;;;;;;48.30;29.85;;;;;;;10.34;76.51;101334.47;5047295;28;20072;-74
2021/04/30 10:36:33;;;;;;;46.53;29.88;;;;;;;10.35;77.07;101328.28;5054239;28;20141;-72
2021/04/30 10:39:02;;;;;;;42.45;29.42;;;;;;;10.33;76.76;101330.22;5053541;28;20056;-73
2021/04/30 10:41:36;;;;;;;;;;;;;;;10.34;76.31;101329.25;5044618;28;20095;-72
2021/04/30 10:44:12;;;;;;;50.22;29.45;;;;;;;10.36;76.57;101335.19;5052755;28;19935;-72
2021/04/30 10:46:39;;;;;;;43.50;28.33;;;;;;;10.41;76.23;101325.13;5055701;28;20065;-73
2021/04/30 10:49:08;;;;;;;43.85;27.67;;;;;;;10.50;76.05;101320.88;5051634;28;20655;-73
2021/04/30 10:51:38;;;;;;;38.65;27.45;;;;;;;10.59;76.40;101320.06;5056991;28;20080;-73
2021/04/30 10:54:26;;;;;;;42.15;27.70;;;;;;;10.71;77.30;101314.72;5036619;28;20496;-73
2021/04/30 10:57:00;;;;;;;38.45;27.52;;;;;;;10.74;76.72;101314.44;5061799;28;20048;-72
2021/04/30 10:59:28;;;;;;;40.05;28.00;;;;;;;10.82;76.53;101325.94;5058508;28;20486;-73
2021/04/30 11:02:02;;;;;;;37.75;26.38;;;;;;;10.78;74.47;101318.44;5047781;28;20138;-73
2021/04/30 11:04:29;;;;;;;41.92;25.98;;;;;;;10.84;75.42;101325.81;5052770;28;20185;-73
2021/04/30 11:06:57;;;;;;;34.83;25.55;;;;;;;10.85;75.18;101327.44;5036298;28;20129;-72
2021/04/30 11:09:32;;;;;;;41.13;26.58;;;;;;;10.88;74.65;101325.38;5058933;28;20052;-72
2021/04/30 11:12:20;;;;;;;38.88;27.65;;;;;;;10.99;75.58;101324.41;5053469;28;20539;-72
2021/04/30 11:15:06;;;;;;;42.60;28.10;;;;;;;11.07;75.52;101327.22;5050379;28;20792;-72
2021/04/30 11:18:01;;;;;;;43.70;27.63;;;;;;;11.11;74.07;101317.25;5043729;28;20134;-72
2021/04/30 11:20:30;;;;;;;42.60;28.83;;;;;;;11.24;75.39;101316.97;5047335;28;20054;-72
2021/04/30 11:23:23;;;;;;;46.03;29.58;;;;;;;11.33;75.38;101321.41;5047386;28;20484;-72
2021/04/30 11:25:57;;;;;;;46.13;31.83;;;;;;;11.57;75.83;101315.72;5050134;28;20080;-72
2021/04/30 11:28:43;;;;;;;46.10;28.98;;;;;;;11.79;75.91;101314.53;5052377;28;20048;-72
2021/04/30 11:31:26;;;;;;;41.77;30.40;;;;;;;12.01;75.12;101321.28;5037634;28;20144;-73
2021/04/30 11:34:18;;;;;;;44.90;28.73;;;;;;;12.01;73.13;101316.03;5057974;28;20052;-72
2021/04/30 11:36:51;;;;;;;45.92;29.60;;;;;;;11.96;72.76;101309.56;5059473;28;20133;-74
2021/04/30 11:39:35;;;;;;;40.78;27.80;;;;;;;11.94;73.58;101304.44;5060200;28;20064;-72
2021/04/30 11:42:19;;;;;;;38.35;27.17;;;;;;;11.95;72.32;101310.53;5037444;28;20059;-74
2021/04/30 11:44:45;;;;;;;38.33;28.20;;;;;;;11.91;71.57;101306.53;5051039;28;20044;-72
2021/04/30 11:47:14;;;;;;;45.38;29.70;;;;;;;11.98;72.57;101305.00;5049512;28;20084;-72
2021/04/30 11:50:00;;;;;;;40.72;29.45;;;;;;;11.95;72.20;101307.91;5051036;28;20052;-72
2021/04/30 11:52:28;;;;;;;33.10;24.42;;;;;;;11.81;67.60;101309.97;5053437;28;20080;-72
2021/04/30 11:55:07;;;;;;;31.73;24.38;;;;;;;11.86;70.22;101301.69;5052931;28;20143;-73
2021/04/30 11:57:34;;;;;;;31.85;23.88;;;;;;;11.83;69.74;101300.16;5051915;28;20118;-73
2021/04/30 12:00:00;;;;;;;32.97;23.65;;;;;;;11.93;69.16;101304.59;5057367;28;20168;-72
2021/04/30 12:02:29;;;;;;;30.02;22.55;;;;;;;11.87;67.04;101292.81;5059207;28;20053;-72
2021/04/30 12:04:57;;;;;;;34.03;23.92;;;;;;;11.97;68.85;101300.69;5043122;28;20536;-71
2021/04/30 12:07:34;;;;;;;36.35;23.52;;;;;;;11.86;66.20;101299.88;5057768;28;20040;-72
2021/04/30 12:10:04;;;;;;;31.63;24.08;;;;;;;11.84;64.74;101304.44;5049107;28;20136;-72
2021/04/30 12:12:30;;;;;;;34.85;25.60;;;;;;;12.04;68.26;101297.34;5060854;28;20110;-72